Time;durP1;ratioP1;P1;durP2;ratioP2;P2;SDS_P1;SDS_P2;PMS_P1;PMS_P2;Temp;Humidity;BMP_temperature;BMP_pressure;BME280_temperature;BME280_humidity;BME280_pressure;Samples;Min_cycle;Max_cycle;Signal;HPM_P1;HPM_P2
2023/05/26 00:01:46;;;;;;;10.93;2.33;;;8.50;99.90;;;;;;4967805;28;20108;-73
2023/05/26 00:04:18;;;;;;;13.40;2.65;;;8.50;18.50;;;;;;4985487;28;20136;-73
2023/05/26 00:06:52;;;;;;;8.27;2.38;;;8.50;99.90;;;;;;4985812;28;20136;-73
2023/05/26 00:09:20;;;;;;;5.07;1.92;;;8.50;99.90;;;;;;4982768;28;20046;-73
2023/05/26 00:11:45;;;;;;;5.78;1.88;;;8.50;99.90;;;;;;4983941;28;20503;-73
2023/05/26 00:14:14;;;;;;;4.68;1.63;;;8.40;99.90;;;;;;4985319;28;20054;-73
2023/05/26 00:16:40;;;;;;;7.70;1.90;;;8.40;99.90;;;;;;4998759;28;20482;-73
2023/05/26 00:19:07;;;;;;;7.85;2.17;;;8.40;88.50;;;;;;4986341;28;20104;-73
2023/05/26 00:21:36;;;;;;;5.10;2.20;;;8.40;99.20;;;;;;4984650;28;20074;-73
2023/05/26 00:24:02;;;;;;;13.38;2.85;;;8.40;99.90;;;;;;5000167;28;20498;-73
2023/05/26 00:26:28;;;;;;;11.63;2.80;;;8.40;1.00;;;;;;4982105;28;20054;-71
2023/05/26 00:28:53;;;;;;;9.88;2.42;;;8.40;70.50;;;;;;4984001;28;20054;-74
2023/05/26 00:31:19;;;;;;;7.93;2.20;;;8.40;1.80;;;;;;4967040;28;20046;-75
2023/05/26 00:33:45;;;;;;;8.07;2.05;;;8.40;99.90;;;;;;4967078;28;20057;-72
2023/05/26 00:36:10;;;;;;;10.77;2.42;;;8.40;99.90;;;;;;4985008;28;20508;-74
2023/05/26 00:38:36;;;;;;;10.98;2.65;;;8.40;99.90;;;;;;4983588;28;20052;-72
2023/05/26 00:41:02;;;;;;;10.68;2.60;;;8.40;1.00;;;;;;4985244;28;20042;-73
2023/05/26 00:43:28;;;;;;;9.48;2.63;;;8.40;83.30;;;;;;4984849;28;20042;-73
2023/05/26 00:45:54;;;;;;;16.35;3.67;;;8.40;50.90;;;;;;4985174;28;20050;-73
2023/05/26 00:48:20;;;;;;;13.23;2.90;;;8.40;28.60;;;;;;4983082;28;20054;-72
2023/05/26 00:50:47;;;;;;;13.70;3.53;;;8.40;99.90;;;;;;4983310;28;20524;-72
2023/05/26 00:53:13;;;;;;;16.83;3.75;;;8.40;99.90;;;;;;4985773;28;20108;-73
2023/05/26 00:55:39;;;;;;;;;;;8.40;90.10;;;;;;4983819;28;20042;-73
2023/05/26 00:58:05;;;;;;;16.77;3.70;;;8.40;30.50;;;;;;4985123;28;20012;-73
2023/05/26 01:00:31;;;;;;;10.48;3.15;;;8.40;27.50;;;;;;4982070;28;20120;-73
2023/05/26 01:02:58;;;;;;;14.93;3.40;;;8.40;32.90;;;;;;4984718;28;20041;-73
2023/05/26 01:05:25;;;;;;;10.10;2.95;;;8.40;1.00;;;;;;4985087;28;20053;-73
2023/05/26 01:07:51;;;;;;;;;;;8.40;50.50;;;;;;4983232;28;20168;-73
2023/05/26 01:10:17;;;;;;;10.45;2.67;;;8.40;59.70;;;;;;4985774;28;20401;-73
2023/05/26 01:13:08;;;;;;;8.73;2.45;;;8.40;99.90;;;;;;4984297;28;20128;-74
2023/05/26 01:15:40;;;;;;;11.48;2.60;;;8.40;88.80;;;;;;4966550;28;20111;-73
2023/05/26 01:18:13;;;;;;;12.27;2.83;;;8.40;99.90;;;;;;4982327;28;20045;-73
2023/05/26 01:21:07;;;;;;;5.53;1.80;;;8.30;99.90;;;;;;4982589;28;20401;-73
2023/05/26 01:23:56;;;;;;;6.78;1.83;;;8.30;99.90;;;;;;4981451;28;20052;-73
2023/05/26 01:26:42;;;;;;;7.78;2.28;;;8.20;99.90;;;;;;4982681;28;20042;-73
2023/05/26 01:29:14;;;;;;;10.80;3.20;;;8.20;99.90;;;;;;4980444;28;20080;-73
2023/05/26 01:31:41;;;;;;;15.98;3.42;;;8.20;1.00;;;;;;4983401;28;20061;-73
2023/05/26 01:34:07;;;;;;;12.15;2.75;;;8.20;51.40;;;;;;4998725;28;20049;-73
2023/05/26 01:36:35;;;;;;;11.25;2.55;;;8.20;99.90;;;;;;5000274;28;20050;-73
2023/05/26 01:39:02;;;;;;;13.18;3.13;;;8.10;99.90;;;;;;4984220;28;20046;-73
2023/05/26 01:41:34;;;;;;;16.73;3.20;;;8.20;99.90;;;;;;4982409;28;20458;-73
2023/05/26 01:44:12;;;;;;;12.00;3.08;;;8.20;99.90;;;;;;4999835;28;20042;-73
2023/05/26 01:46:51;;;;;;;11.00;3.42;;;8.20;99.90;;;;;;4980777;28;20136;-72
2023/05/26 01:49:23;;;;;;;11.18;3.40;;;8.30;99.90;;;;;;4982382;28;20091;-73
2023/05/26 01:51:57;;;;;;;12.23;2.95;;;8.30;99.90;;;;;;4983188;28;20045;-73
2023/05/26 01:54:25;;;;;;;12.30;2.78;;;8.30;99.90;;;;;;4982326;28;20034;-73
2023/05/26 01:56:53;;;;;;;6.00;2.30;;;8.20;99.90;;;;;;4999994;28;20060;-73
2023/05/26 01:59:20;;;;;;;14.88;3.88;;;8.20;99.90;;;;;;4999481;28;20049;-73
2023/05/26 02:01:46;;;;;;;14.43;3.38;;;8.30;99.90;;;;;;4981263;28;20053;-73
2023/05/26 02:04:12;;;;;;;;;;;8.20;99.90;;;;;;4983489;28;20405;-73
2023/05/26 02:06:39;;;;;;;12.45;3.00;;;8.20;99.90;;;;;;4997681;28;19922;-73
2023/05/26 02:09:05;;;;;;;;;;;8.20;99.90;;;;;;4983480;28;20045;-73
2023/05/26 02:11:31;;;;;;;11.35;2.70;;;8.30;99.90;;;;;;4982104;28;20400;-73
2023/05/26 02:13:57;;;;;;;14.07;3.00;;;8.20;99.90;;;;;;4969101;28;20075;-73
2023/05/26 02:16:24;;;;;;;12.98;3.47;;;8.20;99.90;;;;;;5000904;28;20865;-73
2023/05/26 02:18:50;;;;;;;14.80;3.22;;;8.20;99.60;;;;;;4967949;28;20121;-73
2023/05/26 02:21:16;;;;;;;13.95;3.35;;;8.20;99.90;;;;;;4982475;28;20121;-73
2023/05/26 02:23:43;;;;;;;11.90;2.50;;;8.30;99.90;;;;;;4982646;28;20453;-73
2023/05/26 02:26:09;;;;;;;12.82;2.60;;;8.20;99.90;;;;;;4981785;28;20491;-73
2023/05/26 02:28:35;;;;;;;13.40;2.85;;;8.20;99.90;;;;;;4980972;28;20132;-73
2023/05/26 02:31:01;;;;;;;7.00;2.13;;;8.20;99.90;;;;;;4982662;28;20458;-73
2023/05/26 02:33:27;;;;;;;10.60;3.08;;;8.20;99.90;;;;;;4983055;28;20037;-73
2023/05/26 02:35:52;;;;;;;10.40;2.97;;;8.20;99.90;;;;;;4983352;28;20404;-73
2023/05/26 02:38:18;;;;;;;10.90;2.67;;;8.20;99.90;;;;;;4967173;28;20038;-73
2023/05/26 02:40:44;;;;;;;8.13;2.55;;;8.20;99.90;;;;;;4967730;28;20037;-73
2023/05/26 02:43:09;;;;;;;8.30;2.45;;;8.20;99.90;;;;;;4982809;28;20132;-73
2023/05/26 02:45:35;;;;;;;6.75;2.30;;;8.20;99.90;;;;;;4965641;28;20050;-73
2023/05/26 02:48:01;;;;;;;7.43;2.28;;;8.20;1.00;;;;;;4967501;28;20054;-73
2023/05/26 02:50:26;;;;;;;6.93;1.95;;;8.20;99.90;;;;;;4999902;28;20065;-73
2023/05/26 02:52:52;;;;;;;7.53;2.10;;;8.20;99.90;;;;;;4982938;28;20088;-71
2023/05/26 02:55:18;;;;;;;9.18;2.30;;;8.20;1.00;;;;;;4982456;28;20053;-71
2023/05/26 02:57:44;;;;;;;12.98;2.78;;;8.10;99.90;;;;;;4966019;28;20897;-71
2023/05/26 03:00:11;;;;;;;16.88;3.28;;;8.10;99.90;;;;;;4964543;28;20494;-71
2023/05/26 03:02:37;;;;;;;16.25;3.28;;;8.20;99.90;;;;;;4999477;28;20564;-71
2023/05/26 03:05:04;;;;;;;10.93;3.00;;;8.20;99.90;;;;;;4982616;28;20129;-71
2023/05/26 03:07:30;;;;;;;6.97;2.38;;;8.30;99.90;;;;;;4984462;28;20073;-71
2023/05/26 03:09:56;;;;;;;5.78;1.70;;;8.20;99.90;;;;;;4984092;28;20045;-71
2023/05/26 03:12:21;;;;;;;7.60;2.10;;;8.20;99.90;;;;;;4967816;28;20053;-71
2023/05/26 03:14:48;;;;;;;6.82;2.13;;;8.20;99.90;;;;;;4969871;28;20050;-71
2023/05/26 03:17:16;;;;;;;7.57;2.30;;;8.10;1.00;;;;;;4984645;28;20127;-70
2023/05/26 03:19:42;;;;;;;9.43;2.78;;;8.10;99.90;;;;;;4986257;28;20042;-71
2023/05/26 03:22:08;;;;;;;9.10;2.53;;;8.10;99.90;;;;;;5002152;28;20124;-72
2023/05/26 03:24:34;;;;;;;6.93;1.75;;;8.10;99.90;;;;;;4989570;28;20125;-71
2023/05/26 03:27:01;;;;;;;8.48;2.25;;;8.00;1.00;;;;;;4970482;28;20160;-71
2023/05/26 03:29:27;;;;;;;;;;;8.00;99.90;;;;;;4986846;28;20121;-71
2023/05/26 03:31:53;;;;;;;5.13;1.85;;;8.00;99.90;;;;;;4986979;28;20372;-71
2023/05/26 03:34:18;;;;;;;8.13;2.30;;;7.90;1.00;;;;;;4988544;28;20046;-71
2023/05/26 03:36:45;;;;;;;6.88;2.10;;;8.00;1.00;;;;;;4987493;28;20089;-72
2023/05/26 03:39:11;;;;;;;4.50;2.00;;;7.90;1.00;;;;;;4985702;28;20045;-71
2023/05/26 03:41:36;;;;;;;3.90;1.38;;;7.90;1.00;;;;;;4985397;28;20040;-71
2023/05/26 03:44:02;;;;;;;3.50;1.20;;;7.90;1.00;;;;;;5007908;28;20042;-71
2023/05/26 03:46:28;;;;;;;4.97;1.40;;;7.90;1.00;;;;;;4983884;28;20042;-71
2023/05/26 03:48:53;;;;;;;3.08;0.90;;;7.90;1.00;;;;;;4987752;28;20041;-71
2023/05/26 03:51:19;;;;;;;2.30;0.95;;;7.80;1.00;;;;;;4967616;28;20472;-71
2023/05/26 03:53:45;;;;;;;3.60;1.20;;;7.80;1.00;;;;;;5000903;28;20038;-71
2023/05/26 03:56:10;;;;;;;2.63;1.08;;;7.80;38.40;;;;;;4984130;28;20041;-71
2023/05/26 03:58:36;;;;;;;2.97;0.93;;;7.80;25.70;;;;;;4985474;28;20053;-71
2023/05/26 04:01:03;;;;;;;8.38;2.10;;;7.80;1.00;;;;;;4982935;28;20049;-71
2023/05/26 04:03:29;;;;;;;9.32;1.98;;;7.80;1.00;;;;;;4987073;28;20476;-71
2023/05/26 04:05:57;;;;;;;5.07;1.83;;;7.80;1.00;;;;;;4983830;28;20046;-71
2023/05/26 04:08:22;;;;;;;5.80;1.85;;;7.90;1.00;;;;;;4985437;28;20053;-71
2023/05/26 04:10:48;;;;;;;9.57;2.35;;;7.90;1.00;;;;;;4984524;28;20050;-71
2023/05/26 04:13:14;;;;;;;7.97;2.05;;;7.90;1.00;;;;;;4982050;28;20064;-71
2023/05/26 04:15:39;;;;;;;4.75;1.55;;;8.00;1.00;;;;;;4984135;28;20064;-71
2023/05/26 04:18:05;;;;;;;8.48;2.22;;;8.00;1.00;;;;;;4984290;28;20034;-71
2023/05/26 04:20:31;;;;;;;9.52;2.65;;;8.10;1.00;;;;;;4985105;28;20041;-71
2023/05/26 04:22:56;;;;;;;12.73;3.05;;;8.10;99.90;;;;;;4985860;28;20054;-71
2023/05/26 04:25:24;;;;;;;11.00;2.38;;;8.20;99.90;;;;;;4999787;28;20042;-71
2023/05/26 04:27:52;;;;;;;8.57;1.95;;;8.20;99.90;;;;;;4984413;28;20057;-71
2023/05/26 04:30:18;;;;;;;13.95;3.15;;;8.20;1.00;;;;;;4984355;28;21200;-71
2023/05/26 04:32:44;;;;;;;12.85;3.22;;;8.30;99.90;;;;;;4983877;28;20492;-71
2023/05/26 04:35:10;;;;;;;16.90;3.40;;;8.40;99.90;;;;;;4968702;28;20058;-71
2023/05/26 04:37:38;;;;;;;12.48;2.72;;;8.50;99.90;;;;;;4968675;28;20042;-71
2023/05/26 04:40:06;;;;;;;9.38;2.47;;;8.60;99.90;;;;;;4986302;28;20060;-71
2023/05/26 04:42:34;;;;;;;10.45;2.65;;;8.60;99.90;;;;;;4985505;28;20136;-71
2023/05/26 04:45:00;;;;;;;13.20;3.08;;;8.60;99.90;;;;;;4984036;28;20088;-71
2023/05/26 04:47:27;;;;;;;11.07;3.17;;;8.70;99.90;;;;;;4984316;28;20449;-71
2023/05/26 04:49:53;;;;;;;14.60;3.22;;;8.70;99.90;;;;;;4985965;28;20042;-71
2023/05/26 04:52:18;;;;;;;21.92;3.90;;;8.80;99.90;;;;;;4982534;28;20046;-71
2023/05/26 04:54:44;;;;;;;12.57;3.25;;;8.90;99.90;;;;;;4985628;28;20042;-70
2023/05/26 04:57:10;;;;;;;13.68;3.25;;;8.90;99.90;;;;;;4983544;28;20038;-71
2023/05/26 04:59:37;;;;;;;12.07;3.15;;;8.90;99.90;;;;;;4983256;28;20100;-71
2023/05/26 05:02:04;;;;;;;8.30;2.88;;;9.00;99.90;;;;;;4966031;28;20037;-71
2023/05/26 05:04:30;;;;;;;7.25;2.10;;;9.00;99.90;;;;;;4968111;28;20049;-71
2023/05/26 05:06:56;;;;;;;5.05;1.77;;;9.00;99.90;;;;;;4982986;28;20898;-71
2023/05/26 05:09:21;;;;;;;7.68;2.05;;;9.00;99.90;;;;;;4983669;28;20065;-71
2023/05/26 05:11:47;;;;;;;9.25;2.70;;;9.10;99.90;;;;;;4966048;28;20037;-72
2023/05/26 05:14:13;;;;;;;11.82;2.78;;;9.10;99.90;;;;;;4983379;28;20046;-72
2023/05/26 05:16:41;;;;;;;17.05;4.22;;;9.20;99.90;;;;;;4981809;28;20046;-72
2023/05/26 05:19:07;;;;;;;12.80;3.05;;;9.30;99.90;;;;;;4985199;28;20458;-72
2023/05/26 05:21:33;;;;;;;10.68;2.92;;;9.30;99.90;;;;;;4998449;28;20115;-72
2023/05/26 05:23:58;;;;;;;9.52;2.60;;;9.40;99.90;;;;;;4983817;28;20061;-72
2023/05/26 05:26:25;;;;;;;8.18;2.33;;;9.50;99.90;;;;;;4981100;28;20050;-72
2023/05/26 05:28:51;;;;;;;11.80;2.60;;;9.50;99.90;;;;;;4984185;28;20393;-72
2023/05/26 05:31:16;;;;;;;10.18;2.80;;;9.60;99.90;;;;;;5000895;28;20053;-72
2023/05/26 05:33:43;;;;;;;15.10;3.20;;;9.60;99.90;;;;;;4984982;28;20104;-72
2023/05/26 05:36:09;;;;;;;15.73;3.60;;;9.70;95.70;;;;;;4983830;28;20825;-72
2023/05/26 05:38:35;;;;;;;11.25;2.70;;;9.80;99.90;;;;;;4984596;28;20078;-72
2023/05/26 05:41:00;;;;;;;13.43;3.47;;;10.00;66.00;;;;;;4980995;28;20073;-71
2023/05/26 05:43:28;;;;;;;11.57;2.97;;;10.10;32.30;;;;;;4985401;28;20042;-71
2023/05/26 05:45:54;;;;;;;12.82;3.08;;;10.20;99.90;;;;;;4984881;28;20096;-71
2023/05/26 05:48:20;;;;;;;11.00;2.90;;;10.50;99.90;;;;;;4983223;28;20568;-71
2023/05/26 05:50:46;;;;;;;15.73;3.60;;;10.90;93.80;;;;;;4972773;28;20042;-71
2023/05/26 05:53:12;;;;;;;14.07;3.60;;;11.30;99.90;;;;;;4965997;28;20125;-71
2023/05/26 05:55:38;;;;;;;11.88;2.97;;;11.60;99.90;;;;;;4982393;28;20034;-71
2023/05/26 05:58:04;;;;;;;11.95;2.95;;;11.80;94.80;;;;;;4985588;28;20047;-71
2023/05/26 06:00:30;;;;;;;13.85;3.38;;;12.10;99.90;;;;;;4982002;28;20137;-72
2023/05/26 06:02:56;;;;;;;18.45;3.40;;;12.20;1.00;;;;;;4950785;28;20136;-72
2023/05/26 06:05:22;;;;;;;13.52;3.30;;;12.30;99.90;;;;;;4982561;28;20157;-72
2023/05/26 06:07:47;;;;;;;13.88;3.08;;;12.30;99.90;;;;;;4981733;28;20670;-72
2023/05/26 06:10:13;;;;;;;16.00;3.95;;;12.10;99.90;;;;;;4997818;28;20042;-69
2023/05/26 06:12:39;;;;;;;12.32;3.00;;;11.90;99.90;;;;;;4984428;28;20048;-72
2023/05/26 06:15:05;;;;;;;17.40;3.65;;;11.70;99.90;;;;;;4981803;28;20030;-71
2023/05/26 06:17:31;;;;;;;11.82;2.95;;;11.50;1.00;;;;;;4968295;28;20042;-71
2023/05/26 06:19:56;;;;;;;11.68;3.00;;;11.40;1.00;;;;;;5004169;28;20048;-71
2023/05/26 06:22:22;;;;;;;10.85;2.90;;;11.40;1.00;;;;;;4983635;28;20418;-71
2023/05/26 06:24:48;;;;;;;10.98;2.83;;;11.30;1.00;;;;;;4983314;28;20117;-72
2023/05/26 06:27:13;;;;;;;10.05;3.10;;;11.20;1.00;;;;;;4992407;28;20042;-72
2023/05/26 06:29:39;;;;;;;10.93;2.90;;;11.20;1.00;;;;;;4992220;28;20073;-72
2023/05/26 06:32:05;;;;;;;10.43;2.72;;;11.40;1.00;;;;;;4991960;28;20046;-72
2023/05/26 06:34:30;;;;;;;12.05;2.70;;;11.50;1.00;;;;;;4990690;28;20089;-72
2023/05/26 06:36:56;;;;;;;12.75;2.67;;;11.70;1.00;;;;;;4982487;28;20076;-72
2023/05/26 06:39:24;;;;;;;11.82;3.17;;;11.80;1.00;;;;;;4987857;28;20396;-71
2023/05/26 06:41:50;;;;;;;13.80;3.53;;;11.80;99.90;;;;;;4989879;28;20065;-71
2023/05/26 06:44:16;;;;;;;8.90;2.75;;;11.90;99.90;;;;;;5005333;28;20050;-71
2023/05/26 06:46:41;;;;;;;11.02;3.13;;;12.00;99.90;;;;;;4987905;28;20104;-70
2023/05/26 06:49:07;;;;;;;10.07;3.00;;;12.10;99.90;;;;;;4976412;28;20046;-71
2023/05/26 06:51:33;;;;;;;12.25;2.97;;;12.20;99.90;;;;;;4989302;28;20354;-72
2023/05/26 06:53:58;;;;;;;9.40;2.45;;;12.30;99.90;;;;;;4991738;28;20497;-70
2023/05/26 06:56:26;;;;;;;11.85;2.78;;;12.30;88.40;;;;;;4989424;28;20129;-71
2023/05/26 06:58:52;;;;;;;10.00;2.70;;;12.40;99.90;;;;;;4990912;28;20502;-71
2023/05/26 07:01:17;;;;;;;12.48;3.03;;;12.50;99.90;;;;;;4984559;28;20034;-72
2023/05/26 07:03:43;;;;;;;10.07;2.45;;;12.60;41.60;;;;;;4985784;28;20044;-72
2023/05/26 07:06:09;;;;;;;12.55;3.15;;;12.80;36.90;;;;;;4984640;28;20056;-72
2023/05/26 07:08:35;;;;;;;10.93;2.70;;;12.80;1.00;;;;;;4982695;28;20814;-72
2023/05/26 07:11:00;;;;;;;10.35;2.63;;;12.90;1.00;;;;;;4985410;28;20038;-72
2023/05/26 07:13:26;;;;;;;6.80;2.35;;;12.90;1.00;;;;;;4983771;28;20099;-72
2023/05/26 07:15:52;;;;;;;9.18;2.42;;;13.00;1.00;;;;;;4978478;28;20081;-72
2023/05/26 07:18:17;;;;;;;11.82;2.67;;;13.10;1.00;;;;;;4980723;28;20045;-72
2023/05/26 07:20:43;;;;;;;10.43;2.40;;;13.10;99.90;;;;;;4988946;28;20555;-72
2023/05/26 07:23:09;;;;;;;15.73;3.28;;;13.20;99.90;;;;;;4979409;28;20046;-71
2023/05/26 07:25:35;;;;;;;11.00;2.42;;;13.20;99.90;;;;;;4990921;28;20099;-72
2023/05/26 07:28:00;;;;;;;8.60;2.50;;;13.20;99.90;;;;;;4985127;28;20489;-72
2023/05/26 07:30:26;;;;;;;7.63;2.13;;;13.30;99.90;;;;;;4982901;28;20129;-72
2023/05/26 07:32:54;;;;;;;7.20;2.38;;;13.40;99.90;;;;;;4982433;28;20524;-72
2023/05/26 07:35:20;;;;;;;7.55;2.17;;;13.50;99.90;;;;;;4982657;28;20053;-72
2023/05/26 07:37:46;;;;;;;;;;;13.60;99.90;;;;;;4999990;28;20086;-72
2023/05/26 07:40:12;;;;;;;8.45;2.40;;;13.80;99.90;;;;;;4982817;28;20000;-72
2023/05/26 07:42:37;;;;;;;5.85;2.35;;;13.90;99.90;;;;;;4966619;28;20049;-72
2023/05/26 07:45:03;;;;;;;13.98;3.05;;;14.00;99.90;;;;;;4983870;28;20095;-72
2023/05/26 07:47:31;;;;;;;10.48;2.47;;;14.10;99.90;;;;;;4987471;28;20107;-72
2023/05/26 07:49:58;;;;;;;7.65;2.45;;;14.00;99.90;;;;;;4987772;28;20046;-72
2023/05/26 07:52:24;;;;;;;9.40;2.10;;;14.10;99.90;;;;;;4988949;28;20104;-72
2023/05/26 07:54:50;;;;;;;;;;;14.30;99.90;;;;;;4989120;28;20038;-71
2023/05/26 07:57:15;;;;;;;8.93;2.33;;;14.50;99.90;;;;;;4989036;28;20480;-71
2023/05/26 07:59:41;;;;;;;8.73;2.65;;;14.60;99.90;;;;;;4990190;28;20046;-71
2023/05/26 08:02:07;;;;;;;9.75;2.40;;;14.80;99.90;;;;;;4993967;28;20045;-72
2023/05/26 08:04:32;;;;;;;10.23;2.45;;;14.90;99.90;;;;;;4991225;28;20041;-72
2023/05/26 08:06:58;;;;;;;9.00;2.50;;;15.00;99.90;;;;;;4994416;28;20401;-71
2023/05/26 08:09:24;;;;;;;8.60;2.42;;;15.20;99.90;;;;;;5007964;28;20041;-71
2023/05/26 08:11:50;;;;;;;7.28;2.20;;;15.30;99.90;;;;;;4987448;28;20038;-71
2023/05/26 08:14:17;;;;;;;10.60;2.95;;;15.50;99.90;;;;;;4994248;28;20042;-71
2023/05/26 08:16:43;;;;;;;6.43;2.00;;;15.40;99.90;;;;;;4993716;28;20115;-71
2023/05/26 08:19:09;;;;;;;6.88;2.38;;;15.30;99.90;;;;;;5010299;28;20046;-71
2023/05/26 08:21:35;;;;;;;10.98;2.47;;;15.20;99.90;;;;;;4966549;28;20466;-71
2023/05/26 08:24:01;;;;;;;7.68;2.28;;;15.20;99.90;;;;;;4980280;28;20060;-71
2023/05/26 08:26:26;;;;;;;9.05;2.60;;;15.10;99.90;;;;;;4980445;28;20054;-70
2023/05/26 08:28:53;;;;;;;8.73;2.53;;;15.20;99.90;;;;;;4995447;28;20077;-70
2023/05/26 08:31:19;;;;;;;12.00;2.60;;;15.30;99.90;;;;;;4995305;28;20493;-70
2023/05/26 08:33:44;;;;;;;11.65;2.63;;;15.30;99.90;;;;;;5012160;28;20042;-70
2023/05/26 08:36:10;;;;;;;9.48;2.47;;;15.20;99.90;;;;;;5011989;28;20053;-71
2023/05/26 08:38:36;;;;;;;9.23;2.92;;;15.30;99.90;;;;;;4994781;28;20046;-71
2023/05/26 08:41:05;;;;;;;7.70;2.38;;;15.30;99.90;;;;;;4976835;28;20125;-71
2023/05/26 08:43:50;;;;;;;9.32;2.85;;;15.40;99.90;;;;;;4984902;28;20512;-71
2023/05/26 08:46:16;;;;;;;8.05;2.33;;;15.20;99.90;;;;;;4987314;28;20038;-71
2023/05/26 08:48:42;;;;;;;9.05;2.97;;;15.30;99.90;;;;;;4973783;28;20453;-71
2023/05/26 08:51:08;;;;;;;;;;;15.30;99.90;;;;;;4956550;28;20042;-71
2023/05/26 08:53:35;;;;;;;8.38;2.60;;;15.50;99.90;;;;;;4974090;28;19972;-71
2023/05/26 08:56:01;;;;;;;7.40;2.40;;;15.70;95.20;;;;;;4991521;28;20136;-71
2023/05/26 08:58:29;;;;;;;9.68;2.75;;;15.90;99.90;;;;;;5008905;28;20438;-71
2023/05/26 09:00:56;;;;;;;10.82;2.75;;;16.00;99.90;;;;;;4989441;28;20124;-71
2023/05/26 09:03:22;;;;;;;6.63;2.30;;;16.00;99.60;;;;;;4990906;28;20104;-71
2023/05/26 09:05:48;;;;;;;5.88;2.05;;;16.20;99.90;;;;;;4981048;28;20046;-71
2023/05/26 09:08:14;;;;;;;6.10;2.13;;;16.40;99.00;;;;;;4988898;28;20057;-71
2023/05/26 09:10:40;;;;;;;7.38;2.75;;;16.60;94.50;;;;;;4970589;28;20057;-71
2023/05/26 09:13:09;;;;;;;;;;;16.80;99.90;;;;;;4973958;28;20101;-71
2023/05/26 09:15:36;;;;;;;8.55;2.20;;;16.80;56.80;;;;;;4988425;28;19921;-71
2023/05/26 09:18:07;;;;;;;8.70;2.72;;;16.70;54.90;;;;;;4984198;28;20509;-71
2023/05/26 09:20:38;;;;;;;6.63;2.30;;;16.70;68.80;;;;;;4986686;28;20530;-72
2023/05/26 09:23:04;;;;;;;7.70;2.20;;;16.70;58.40;;;;;;4984534;28;20054;-71
2023/05/26 09:25:38;;;;;;;6.13;2.20;;;16.60;77.20;;;;;;4972931;28;20052;-71
2023/05/26 09:28:06;;;;;;;9.32;2.83;;;16.30;79.90;;;;;;4989343;28;20120;-71
2023/05/26 09:30:44;;;;;;;6.80;2.47;;;16.20;75.20;;;;;;4990525;28;20516;-71
2023/05/26 09:33:16;;;;;;;8.18;2.65;;;16.10;90.70;;;;;;4986617;28;20042;-71
2023/05/26 09:35:44;;;;;;;8.57;2.30;;;16.30;93.90;;;;;;5007462;28;20416;-71
2023/05/26 09:38:11;;;;;;;8.75;2.88;;;16.40;98.30;;;;;;4983640;28;20157;-70
2023/05/26 09:40:41;;;;;;;10.63;2.88;;;16.30;72.50;;;;;;4983321;28;20042;-71
2023/05/26 09:43:07;;;;;;;10.55;2.60;;;16.30;92.60;;;;;;4989374;28;20061;-72
2023/05/26 09:45:35;;;;;;;11.13;2.60;;;16.20;93.70;;;;;;4990255;28;20045;-70
2023/05/26 09:48:05;;;;;;;6.38;2.15;;;16.30;54.70;;;;;;4989204;28;20379;-72
2023/05/26 09:50:35;;;;;;;10.07;3.03;;;16.70;94.90;;;;;;4991227;28;20045;-70
2023/05/26 09:53:06;;;;;;;6.18;2.30;;;16.90;46.50;;;;;;4988527;28;20124;-70
2023/05/26 09:55:33;;;;;;;8.05;2.38;;;17.10;63.00;;;;;;5004163;28;20052;-71
2023/05/26 09:58:09;;;;;;;8.88;2.67;;;17.30;36.40;;;;;;4988920;28;20548;-70
2023/05/26 10:00:37;;;;;;;8.50;2.58;;;17.10;2.10;;;;;;4986411;28;20042;-71
2023/05/26 10:03:05;;;;;;;9.00;2.50;;;16.70;4.20;;;;;;4973814;28;20043;-71
2023/05/26 10:05:36;;;;;;;8.90;2.85;;;16.90;30.90;;;;;;4986221;28;20112;-70
2023/05/26 10:08:05;;;;;;;9.35;2.50;;;17.10;49.00;;;;;;5000727;28;20125;-71
2023/05/26 10:10:32;;;;;;;7.63;2.38;;;17.10;12.70;;;;;;4989412;28;20048;-70
2023/05/26 10:12:58;;;;;;;7.47;2.47;;;17.30;19.70;;;;;;4998349;28;20052;-71
2023/05/26 10:15:25;;;;;;;10.05;2.58;;;17.60;44.90;;;;;;4972129;28;20042;-70
2023/05/26 10:17:51;;;;;;;8.85;2.67;;;17.60;18.20;;;;;;4990196;28;20117;-71
2023/05/26 10:20:17;;;;;;;;;;;17.90;1.00;;;;;;4990641;28;20060;-70
2023/05/26 10:23:06;;;;;;;7.33;2.37;;;17.90;1.00;;;;;;4985744;28;19964;-70
2023/05/26 10:25:43;;;;;;;10.25;2.85;;;17.70;1.00;;;;;;4990335;28;20064;-70
2023/05/26 10:28:27;;;;;;;7.80;2.75;;;17.40;1.00;;;;;;4992757;28;20050;-71
2023/05/26 10:31:01;;;;;;;7.82;2.45;;;17.30;1.00;;;;;;4980622;28;20486;-71
2023/05/26 10:33:44;;;;;;;10.48;2.83;;;17.00;1.00;;;;;;4989404;28;20046;-71
2023/05/26 10:36:15;;;;;;;6.30;2.10;;;17.20;5.50;;;;;;4992188;28;20061;-71
2023/05/26 10:38:49;;;;;;;9.85;2.78;;;17.60;17.80;;;;;;4992969;28;20147;-71
2023/05/26 10:41:52;;;;;;;5.45;1.98;;;17.90;1.00;;;;;;4989411;28;20042;-71
2023/05/26 10:44:44;;;;;;;10.60;2.67;;;18.60;20.00;;;;;;4992733;28;20054;-70
2023/05/26 10:47:15;;;;;;;7.88;2.75;;;18.30;1.00;;;;;;4989856;28;20046;-72
2023/05/26 10:49:42;;;;;;;9.45;2.47;;;18.30;1.00;;;;;;4979071;28;20050;-71
2023/05/26 10:52:13;;;;;;;8.23;2.47;;;18.20;1.00;;;;;;4952924;28;20081;-71
2023/05/26 10:54:40;;;;;;;7.30;2.28;;;17.80;1.00;;;;;;5002558;28;20612;-71
2023/05/26 10:57:26;;;;;;;8.45;2.95;;;17.60;1.00;;;;;;4974157;28;20112;-71
2023/05/26 10:59:53;;;;;;;12.02;2.65;;;17.50;1.00;;;;;;4983843;28;20365;-71
2023/05/26 11:02:21;;;;;;;9.13;2.58;;;17.80;1.00;;;;;;4974944;28;20046;-71
2023/05/26 11:04:48;;;;;;;7.65;2.78;;;17.60;1.00;;;;;;4978633;28;20042;-71
2023/05/26 11:07:29;;;;;;;12.32;3.13;;;17.80;1.00;;;;;;4983564;28;20471;-72
2023/05/26 11:10:06;;;;;;;6.10;2.13;;;17.80;1.00;;;;;;4988288;28;20516;-71
2023/05/26 11:12:46;;;;;;;9.93;3.00;;;18.20;15.50;;;;;;4989911;28;20053;-71
2023/05/26 11:15:35;;;;;;;8.63;2.83;;;18.40;1.00;;;;;;4988246;28;20057;-71
2023/05/26 11:18:05;;;;;;;12.25;3.13;;;18.70;1.00;;;;;;4974591;28;20765;-71
2023/05/26 11:20:31;;;;;;;9.48;2.95;;;19.10;1.00;;;;;;4990759;28;20386;-70
2023/05/26 11:22:57;;;;;;;7.25;2.50;;;18.50;1.00;;;;;;4989244;28;20081;-70
2023/05/26 11:25:23;;;;;;;;;;;18.20;1.00;;;;;;4988290;28;20095;-71
2023/05/26 11:27:50;;;;;;;8.95;2.50;;;18.20;15.60;;;;;;5007983;28;19924;-71
2023/05/26 11:30:17;;;;;;;11.80;2.92;;;18.50;11.90;;;;;;4983089;28;20046;-71
2023/05/26 11:32:50;;;;;;;10.68;2.92;;;18.10;1.70;;;;;;4988474;28;20048;-71
2023/05/26 11:35:27;;;;;;;6.55;2.33;;;17.50;15.90;;;;;;4991368;28;20065;-71
2023/05/26 11:37:54;;;;;;;11.55;2.70;;;17.10;49.90;;;;;;4988102;28;20528;-71
2023/05/26 11:40:20;;;;;;;9.68;3.13;;;16.80;31.60;;;;;;4985383;28;20042;-71
2023/05/26 11:42:46;;;;;;;;;;;17.10;39.90;;;;;;4989174;28;20034;-71
2023/05/26 11:45:12;;;;;;;8.15;2.83;;;17.10;91.00;;;;;;4991494;28;20041;-71
2023/05/26 11:47:39;;;;;;;9.40;2.92;;;17.30;86.20;;;;;;4990101;28;20112;-71
2023/05/26 11:50:10;;;;;;;9.75;3.00;;;17.50;54.70;;;;;;4972327;28;20051;-71
2023/05/26 11:52:42;;;;;;;9.60;3.13;;;17.90;11.00;;;;;;4991254;28;20053;-71
2023/05/26 11:55:12;;;;;;;11.57;3.60;;;18.10;2.10;;;;;;4986944;28;20034;-71
2023/05/26 11:57:40;;;;;;;10.23;2.97;;;17.70;1.00;;;;;;4990157;28;20045;-71
2023/05/26 12:00:11;;;;;;;10.43;2.92;;;17.40;1.00;;;;;;4993190;28;20048;-71
2023/05/26 12:02:38;;;;;;;9.52;2.85;;;16.70;27.80;;;;;;4974356;28;20074;-71
2023/05/26 12:05:17;;;;;;;8.98;2.88;;;16.80;34.70;;;;;;5009982;28;20030;-71
2023/05/26 12:07:43;;;;;;;9.57;3.05;;;17.10;23.90;;;;;;4973320;28;20026;-71
2023/05/26 12:10:09;;;;;;;9.95;2.90;;;17.10;23.60;;;;;;5008412;28;20528;-72
2023/05/26 12:12:50;;;;;;;;;;;17.40;1.00;;;;;;4977639;28;20120;-71
2023/05/26 12:15:20;;;;;;;9.05;2.67;;;17.70;1.00;;;;;;4978971;28;19928;-71
2023/05/26 12:17:47;;;;;;;7.45;2.35;;;18.10;1.00;;;;;;4978193;28;20041;-71
2023/05/26 12:20:20;;;;;;;9.70;2.70;;;18.20;1.00;;;;;;4977638;28;20188;-71
2023/05/26 12:23:01;;;;;;;10.13;2.80;;;17.80;1.00;;;;;;4974460;28;20561;-71
2023/05/26 12:25:29;;;;;;;10.55;2.53;;;17.80;1.00;;;;;;4991887;28;20046;-71
2023/05/26 12:27:55;;;;;;;9.15;3.05;;;17.60;1.00;;;;;;4984411;28;20508;-71
2023/05/26 12:30:21;;;;;;;;;;;17.60;1.00;;;;;;4988068;28;20061;-71
2023/05/26 12:32:50;;;;;;;10.07;2.97;;;17.80;1.00;;;;;;4993671;28;19995;-71
2023/05/26 12:35:16;;;;;;;9.85;3.00;;;17.90;1.50;;;;;;4993236;28;20062;-71
2023/05/26 12:37:42;;;;;;;;;;;18.20;1.00;;;;;;4985164;28;20125;-71
2023/05/26 12:40:09;;;;;;;9.50;2.90;;;18.50;1.00;;;;;;4976603;28;20000;-71
2023/05/26 12:42:39;;;;;;;8.60;2.83;;;18.10;1.00;;;;;;4988397;28;20470;-71
2023/05/26 12:45:05;;;;;;;8.63;2.85;;;17.60;2.10;;;;;;4986275;28;20117;-71
2023/05/26 12:47:34;;;;;;;10.55;3.00;;;17.80;28.90;;;;;;4989825;28;20500;-71
2023/05/26 12:50:00;;;;;;;6.88;2.38;;;17.80;22.70;;;;;;4989945;28;20046;-71
2023/05/26 12:52:26;;;;;;;;;;;17.70;29.40;;;;;;4987717;28;20516;-71
2023/05/26 12:54:51;;;;;;;8.75;3.17;;;17.70;16.70;;;;;;4992492;28;19932;-71
2023/05/26 12:57:18;;;;;;;;;;;17.50;40.50;;;;;;4977811;28;20049;-71